createdAt,value
2023-04-08T00:01:41.470Z,12.47
2023-04-08T00:04:09.822Z,12.13
2023-04-08T00:06:37.368Z,12.37
2023-04-08T00:09:04.064Z,11.43
2023-04-08T00:11:30.668Z,10.77
2023-04-08T00:13:57.256Z,11.27
2023-04-08T00:16:24.117Z,11.63
2023-04-08T00:18:51.330Z,11.87
2023-04-08T00:21:20.641Z,12.17
2023-04-08T00:23:47.804Z,12.03
2023-04-08T00:26:14.537Z,13.60
2023-04-08T00:28:43.278Z,14.50
2023-04-08T00:31:09.982Z,14.53
2023-04-08T00:33:36.753Z,15.97
2023-04-08T00:36:03.510Z,15.57
2023-04-08T00:38:31.861Z,14.73
2023-04-08T00:40:58.883Z,13.97
2023-04-08T00:43:25.540Z,13.80
2023-04-08T00:45:52.660Z,13.70
2023-04-08T00:48:19.354Z,12.97
2023-04-08T00:50:47.466Z,12.90
2023-04-08T00:53:17.881Z,13.40
2023-04-08T00:55:44.803Z,13.07
2023-04-08T00:58:11.835Z,13.57
2023-04-08T01:00:39.313Z,12.47
2023-04-08T01:03:12.977Z,12.37
2023-04-08T01:05:41.639Z,13.63
2023-04-08T01:08:08.629Z,15.03
2023-04-08T01:10:35.651Z,14.80
2023-04-08T01:13:05.395Z,14.47
2023-04-08T01:15:32.107Z,15.47
2023-04-08T01:17:59.064Z,14.30
2023-04-08T01:20:25.983Z,13.77
2023-04-08T01:23:02.236Z,14.43
2023-04-08T01:25:32.837Z,14.50
2023-04-08T01:28:06.285Z,12.50
2023-04-08T01:30:32.949Z,12.90
2023-04-08T01:32:59.892Z,13.70
2023-04-08T01:35:26.507Z,13.63
2023-04-08T01:37:53.156Z,13.43
2023-04-08T01:40:22.326Z,13.40
2023-04-08T02:15:14.517Z,12.57
2023-04-08T02:17:42.040Z,12.00
2023-04-08T02:20:10.605Z,13.33
2023-04-08T02:22:39.061Z,12.07
2023-04-08T02:25:07.771Z,10.10
2023-04-08T02:27:34.512Z,10.83
2023-04-08T02:30:01.147Z,11.90
2023-04-08T02:32:27.804Z,10.77
2023-04-08T02:34:54.600Z,11.20
2023-04-08T02:37:23.204Z,12.47
2023-04-08T02:39:49.704Z,11.17
2023-04-08T02:42:16.637Z,10.57
2023-04-08T02:44:43.234Z,11.33
2023-04-08T02:47:10.935Z,11.40
2023-04-08T02:49:37.494Z,14.33
2023-04-08T02:52:04.629Z,13.30
2023-04-08T02:54:31.351Z,14.47
2023-04-08T02:56:57.938Z,12.67
2023-04-08T02:59:24.518Z,12.00
2023-04-08T03:01:51.153Z,12.43
2023-04-08T03:04:18.090Z,12.10
2023-04-08T03:06:44.766Z,11.93
2023-04-08T03:09:11.453Z,12.23
2023-04-08T03:11:38.017Z,12.03
2023-04-08T03:14:06.056Z,12.90
2023-04-08T03:16:32.818Z,12.63
2023-04-08T03:19:00.002Z,13.40
2023-04-08T03:21:27.462Z,15.17
2023-04-08T03:23:54.048Z,14.53
2023-04-08T03:26:21.570Z,18.33
2023-04-08T03:28:48.484Z,20.77
2023-04-08T03:31:15.758Z,18.90
2023-04-08T03:33:42.391Z,18.67
2023-04-08T03:36:09.056Z,21.77
2023-04-08T03:38:35.941Z,26.50
2023-04-08T03:41:02.634Z,28.03
2023-04-08T03:43:29.249Z,22.13
2023-04-08T03:45:56.293Z,18.87
2023-04-08T03:48:23.161Z,20.83
2023-04-08T03:50:50.983Z,19.53
2023-04-08T03:53:17.765Z,19.70
2023-04-08T03:55:44.364Z,18.27
2023-04-08T03:58:11.304Z,19.40
2023-04-08T04:00:38.680Z,18.03
2023-04-08T04:03:05.452Z,19.53
2023-04-08T04:05:32.110Z,17.97
2023-04-08T04:07:58.685Z,19.37
2023-04-08T04:10:25.446Z,18.07
2023-04-08T04:12:52.060Z,18.37
2023-04-08T04:15:18.712Z,17.47
2023-04-08T04:17:47.397Z,18.97
2023-04-08T04:20:14.182Z,17.23
2023-04-08T04:22:40.700Z,16.57
2023-04-08T04:25:07.555Z,22.13
2023-04-08T04:27:34.148Z,16.83
2023-04-08T04:30:01.495Z,15.87
2023-04-08T04:32:28.344Z,16.13
2023-04-08T04:34:55.859Z,17.90
2023-04-08T04:37:22.654Z,15.90
2023-04-08T04:39:49.178Z,14.17
2023-04-08T04:42:15.813Z,14.23
2023-04-08T04:44:43.256Z,15.03
2023-04-08T04:47:09.822Z,16.00
2023-04-08T04:49:37.957Z,16.17
2023-04-08T04:52:08.220Z,15.13
2023-04-08T04:54:38.471Z,16.40
2023-04-08T04:57:05.777Z,14.73
2023-04-08T04:59:32.670Z,15.63
2023-04-08T05:01:59.374Z,15.20
2023-04-08T05:04:26.404Z,15.90
2023-04-08T05:06:52.945Z,17.07
2023-04-08T05:09:19.602Z,16.13
2023-04-08T05:11:46.212Z,17.13
2023-04-08T05:14:12.835Z,16.23
2023-04-08T05:16:39.508Z,17.70
2023-04-08T05:19:06.097Z,23.80
2023-04-08T05:21:32.795Z,19.73
2023-04-08T05:23:59.465Z,20.30
2023-04-08T05:26:26.441Z,18.30
2023-04-08T05:28:53.116Z,18.20
2023-04-08T05:31:19.796Z,17.73
2023-04-08T05:33:46.967Z,18.37
2023-04-08T05:36:13.784Z,18.30
2023-04-08T05:38:41.025Z,17.70
2023-04-08T05:41:07.716Z,16.80
2023-04-08T05:43:34.585Z,18.07
2023-04-08T05:46:01.201Z,19.37
2023-04-08T05:48:27.746Z,19.20
2023-04-08T05:50:54.321Z,19.23
2023-04-08T05:53:21.878Z,19.23
2023-04-08T05:55:48.495Z,20.33
2023-04-08T05:58:16.090Z,19.80
2023-04-08T06:00:42.793Z,18.27
2023-04-08T06:03:10.860Z,18.73
2023-04-08T06:05:37.554Z,19.60
2023-04-08T06:08:04.537Z,23.20
2023-04-08T06:10:31.545Z,21.57
2023-04-08T06:12:58.629Z,23.70
2023-04-08T06:15:26.069Z,23.87
2023-04-08T06:17:52.659Z,23.57
2023-04-08T06:20:19.283Z,23.83
2023-04-08T06:22:46.323Z,23.37
2023-04-08T06:25:12.892Z,23.80
2023-04-08T06:27:39.506Z,25.50
2023-04-08T06:30:06.440Z,25.47
2023-04-08T06:32:33.482Z,25.23
2023-04-08T06:35:00.197Z,25.00
2023-04-08T06:37:28.474Z,24.00
2023-04-08T06:39:55.564Z,24.10
2023-04-08T06:42:23.274Z,24.33
2023-04-08T06:45:16.275Z,24.60
2023-04-08T06:47:43.092Z,23.90
2023-04-08T06:50:09.989Z,22.07
2023-04-08T06:52:36.665Z,22.03
2023-04-08T06:55:03.368Z,23.43
2023-04-08T06:57:30.108Z,22.63
2023-04-08T06:59:57.325Z,22.20
2023-04-08T07:02:24.349Z,22.43
2023-04-08T07:04:51.069Z,24.63
2023-04-08T07:07:17.747Z,23.30
2023-04-08T07:09:46.092Z,21.80
2023-04-08T07:12:12.943Z,21.57
2023-04-08T07:14:39.577Z,21.33
2023-04-08T07:17:07.202Z,19.70
2023-04-08T07:19:33.788Z,20.70
2023-04-08T07:22:02.972Z,19.73
2023-04-08T07:24:29.690Z,21.03
2023-04-08T07:26:56.984Z,20.40
2023-04-08T07:29:25.823Z,21.30
2023-04-08T07:31:52.976Z,21.20
2023-04-08T07:34:19.884Z,21.87
2023-04-08T07:36:47.071Z,22.60
2023-04-08T07:39:13.713Z,21.40
2023-04-08T07:41:40.650Z,26.43
2023-04-08T07:44:07.777Z,30.30
2023-04-08T07:46:38.904Z,20.40
2023-04-08T07:49:08.920Z,246.13
2023-04-08T07:51:36.080Z,163.47
2023-04-08T07:57:02.270Z,69.70
2023-04-08T07:59:30.386Z,28.10
2023-04-08T08:01:58.176Z,22.17
2023-04-08T08:04:28.456Z,21.90
2023-04-08T08:06:56.773Z,17.87
2023-04-08T08:09:23.750Z,17.93
2023-04-08T08:11:50.415Z,15.80
2023-04-08T08:14:17.558Z,16.70
2023-04-08T08:16:44.809Z,16.73
2023-04-08T08:19:12.605Z,34.47
2023-04-08T08:21:39.724Z,17.60
2023-04-08T08:24:06.659Z,17.87
2023-04-08T08:26:37.231Z,18.63
2023-04-08T08:29:07.493Z,19.07
2023-04-08T08:31:35.529Z,18.40
2023-04-08T08:34:02.665Z,17.47
2023-04-08T08:36:32.757Z,16.23
2023-04-08T08:39:00.144Z,18.20
2023-04-08T08:41:26.782Z,17.27
2023-04-08T08:43:54.600Z,17.50
2023-04-08T08:46:21.639Z,18.33
2023-04-08T08:48:52.313Z,19.63
2023-04-08T08:51:19.225Z,17.73
2023-04-08T08:53:46.345Z,17.60
2023-04-08T08:56:18.252Z,17.83
2023-04-08T08:58:48.045Z,65.47
2023-04-08T09:01:31.803Z,23.67
2023-04-08T09:04:10.807Z,17.70
2023-04-08T09:06:37.946Z,16.53
2023-04-08T09:09:10.720Z,14.90
2023-04-08T09:11:41.495Z,16.33
2023-04-08T09:14:24.058Z,18.17
2023-04-08T09:16:51.348Z,16.13
2023-04-08T09:19:18.313Z,15.93
2023-04-08T09:21:45.075Z,15.37
2023-04-08T09:24:27.079Z,15.50
2023-04-08T09:26:53.744Z,15.93
2023-04-08T09:31:56.153Z,16.30
2023-04-08T09:34:23.406Z,16.07
2023-04-08T09:36:50.504Z,15.30
2023-04-08T09:39:17.229Z,15.50
2023-04-08T09:41:44.169Z,15.67
2023-04-08T09:44:11.990Z,15.97
2023-04-08T09:46:50.594Z,15.20
2023-04-08T09:49:26.972Z,14.63
2023-04-08T09:51:53.742Z,14.63
2023-04-08T09:54:21.464Z,14.00
2023-04-08T09:56:54.940Z,13.80
2023-04-08T09:59:22.317Z,13.03
2023-04-08T10:01:53.320Z,13.00
2023-04-08T10:04:21.469Z,12.47
2023-04-08T10:07:06.741Z,11.20
2023-04-08T10:09:33.791Z,9.80
2023-04-08T10:12:01.479Z,9.20
2023-04-08T10:14:28.926Z,5.67
2023-04-08T10:17:15.504Z,9.13
2023-04-08T10:19:43.181Z,8.77
2023-04-08T10:22:45.682Z,8.00
2023-04-08T10:25:15.952Z,8.60
2023-04-08T10:27:42.898Z,9.67
2023-04-08T10:30:32.985Z,9.70
2023-04-08T10:33:03.565Z,8.97
2023-04-08T10:35:30.747Z,8.17
2023-04-08T10:38:00.521Z,8.90
2023-04-08T10:40:27.374Z,9.20
2023-04-08T10:42:57.574Z,8.83
2023-04-08T10:45:27.783Z,8.77
2023-04-08T10:47:54.517Z,9.27
2023-04-08T10:50:24.429Z,11.97
2023-04-08T10:52:52.321Z,9.70
2023-04-08T10:55:25.526Z,9.97
2023-04-08T10:57:58.200Z,9.10
2023-04-08T11:00:38.302Z,9.10
2023-04-08T11:03:06.297Z,9.20
2023-04-08T11:05:34.045Z,9.50
2023-04-08T11:08:01.562Z,9.27
2023-04-08T11:10:29.773Z,8.60
2023-04-08T11:12:56.838Z,9.37
2023-04-08T11:15:27.007Z,9.03
2023-04-08T11:17:54.384Z,8.90
2023-04-08T11:20:22.088Z,8.83
2023-04-08T11:22:48.902Z,9.23
2023-04-08T11:25:16.100Z,8.67
2023-04-08T11:27:42.901Z,8.57
2023-04-08T11:30:09.795Z,9.20
2023-04-08T11:32:36.690Z,9.53
2023-04-08T11:35:06.484Z,8.70
2023-04-08T11:37:45.717Z,8.77
2023-04-08T11:40:13.423Z,8.77
2023-04-08T11:42:40.566Z,8.53
2023-04-08T11:45:12.813Z,9.47
2023-04-08T11:47:40.647Z,8.83
2023-04-08T11:50:07.516Z,9.20
2023-04-08T11:52:44.436Z,8.70
2023-04-08T11:55:26.971Z,9.03
2023-04-08T11:57:54.907Z,8.67
2023-04-08T12:00:21.795Z,8.80
2023-04-08T12:02:48.986Z,8.87
2023-04-08T12:05:16.347Z,7.97
2023-04-08T12:07:43.236Z,8.67
2023-04-08T12:10:10.586Z,8.83
2023-04-08T12:12:37.806Z,8.53
2023-04-08T12:15:04.809Z,9.07
2023-04-08T12:17:31.734Z,8.63
2023-04-08T12:19:58.636Z,8.07
2023-04-08T12:22:26.118Z,8.67
2023-04-08T12:24:52.848Z,8.67
2023-04-08T12:27:19.684Z,8.67
2023-04-08T12:29:46.388Z,9.17
2023-04-08T12:32:13.545Z,8.70
2023-04-08T12:34:40.605Z,9.20
2023-04-08T12:37:07.279Z,8.57
2023-04-08T12:39:34.210Z,8.37
2023-04-08T12:42:01.756Z,8.30
2023-04-08T12:44:28.609Z,10.10
2023-04-08T12:46:55.850Z,10.60
2023-04-08T12:49:23.429Z,12.90
2023-04-08T12:51:50.499Z,12.37
2023-04-08T12:54:17.228Z,11.10
2023-04-08T12:56:48.687Z,11.80
2023-04-08T12:59:15.610Z,12.00
2023-04-08T13:01:42.569Z,11.37
2023-04-08T13:04:10.461Z,12.67
2023-04-08T13:06:38.005Z,13.17
2023-04-08T13:09:04.668Z,12.80
2023-04-08T13:11:34.269Z,12.03
2023-04-08T13:14:01.346Z,12.10
2023-04-08T13:16:28.113Z,12.70
2023-04-08T13:18:54.759Z,12.73
2023-04-08T13:21:24.649Z,13.97
2023-04-08T13:23:51.315Z,12.77
2023-04-08T13:26:17.976Z,13.10
2023-04-08T13:31:16.699Z,13.77
2023-04-08T13:33:43.325Z,13.10
2023-04-08T13:36:09.995Z,14.60
2023-04-08T13:38:36.728Z,13.87
2023-04-08T13:41:04.235Z,13.53
2023-04-08T13:43:30.931Z,14.57
2023-04-08T13:45:58.739Z,14.77
2023-04-08T13:48:26.740Z,15.67
2023-04-08T13:50:54.537Z,17.00
2023-04-08T13:53:21.362Z,14.70
2023-04-08T13:55:51.004Z,14.60
2023-04-08T13:58:23.859Z,13.40
2023-04-08T14:00:51.998Z,15.63
2023-04-08T14:03:19.269Z,14.43
2023-04-08T14:05:46.184Z,14.57
2023-04-08T14:08:14.834Z,15.00
2023-04-08T14:10:44.179Z,13.70
2023-04-08T14:13:10.771Z,12.83
2023-04-08T14:15:43.873Z,13.43
2023-04-08T14:18:10.824Z,15.07
2023-04-08T14:20:37.498Z,14.47
2023-04-08T14:23:06.670Z,14.17
2023-04-08T14:25:33.483Z,14.93
2023-04-08T14:28:00.359Z,15.80
2023-04-08T14:30:27.604Z,15.50
2023-04-08T14:32:55.403Z,15.30
2023-04-08T14:35:22.097Z,14.60
2023-04-08T14:37:48.824Z,15.13
2023-04-08T14:40:15.489Z,13.93
2023-04-08T14:42:42.253Z,13.60
2023-04-08T14:45:09.076Z,14.73
2023-04-08T14:47:36.053Z,14.47
2023-04-08T14:50:02.846Z,17.17
2023-04-08T14:52:29.551Z,26.00
2023-04-08T14:54:56.457Z,21.90
2023-04-08T14:57:23.579Z,23.07
2023-04-08T14:59:50.292Z,13.77
2023-04-08T15:02:17.040Z,12.67
2023-04-08T15:04:43.782Z,11.90
2023-04-08T15:07:10.549Z,12.47
2023-04-08T15:09:37.184Z,13.50
2023-04-08T15:12:05.555Z,17.80
2023-04-08T15:14:32.753Z,13.20
2023-04-08T15:17:00.803Z,12.40
2023-04-08T15:19:29.688Z,12.37
2023-04-08T15:21:56.383Z,14.20
2023-04-08T15:24:22.977Z,14.07
2023-04-08T15:26:49.627Z,15.07
2023-04-08T15:29:17.178Z,16.73
2023-04-08T15:31:43.892Z,15.13
2023-04-08T15:34:10.619Z,15.07
2023-04-08T15:36:37.847Z,14.20
2023-04-08T15:39:04.415Z,14.40
2023-04-08T15:41:32.580Z,14.47
2023-04-08T15:43:59.312Z,15.63
2023-04-08T15:46:26.067Z,15.53
2023-04-08T15:48:52.978Z,15.17
2023-04-08T15:51:20.816Z,15.57
2023-04-08T15:53:51.778Z,15.47
2023-04-08T15:56:18.530Z,16.87
2023-04-08T15:58:46.569Z,15.80
2023-04-08T16:01:13.490Z,16.07
2023-04-08T16:03:40.157Z,15.43
2023-04-08T16:06:07.538Z,15.97
2023-04-08T16:08:34.885Z,16.70
2023-04-08T16:11:02.616Z,15.87
2023-04-08T16:13:30.971Z,15.90
2023-04-08T16:15:58.349Z,15.40
2023-04-08T16:18:25.344Z,15.53
2023-04-08T16:20:53.093Z,15.63
2023-04-08T16:23:20.191Z,16.40
2023-04-08T16:25:47.056Z,16.03
2023-04-08T16:28:13.784Z,15.73
2023-04-08T16:30:43.629Z,17.03
2023-04-08T16:33:11.369Z,17.27
2023-04-08T16:35:38.413Z,17.83
2023-04-08T16:38:05.120Z,21.37
2023-04-08T16:40:33.594Z,16.47
2023-04-08T16:43:04.921Z,18.00
2023-04-08T16:45:32.771Z,15.40
2023-04-08T16:48:00.569Z,27.37
2023-04-08T16:50:28.623Z,22.57
2023-04-08T16:52:55.337Z,17.73
2023-04-08T16:55:22.048Z,21.83
2023-04-08T16:57:48.748Z,16.90
2023-04-08T17:00:16.845Z,30.60
2023-04-08T17:02:44.865Z,17.47
2023-04-08T17:05:11.694Z,15.00
2023-04-08T17:07:38.330Z,13.90
2023-04-08T17:10:05.447Z,14.97
2023-04-08T17:12:32.764Z,14.43
2023-04-08T17:15:01.848Z,14.67
2023-04-08T17:17:28.551Z,14.63
2023-04-08T17:19:55.186Z,13.20
2023-04-08T17:22:22.001Z,13.50
2023-04-08T17:24:48.630Z,13.77
2023-04-08T17:27:15.214Z,13.73
2023-04-08T17:29:41.812Z,14.50
2023-04-08T17:32:08.819Z,15.10
2023-04-08T17:34:35.493Z,15.63
2023-04-08T17:37:02.485Z,14.20
2023-04-08T17:39:30.567Z,14.70
2023-04-08T17:41:57.717Z,15.50
2023-04-08T17:44:29.721Z,22.33
2023-04-08T17:46:56.734Z,17.07
2023-04-08T17:49:23.556Z,14.97
2023-04-08T17:51:51.321Z,14.53
2023-04-08T17:54:18.036Z,14.00
2023-04-08T17:56:45.791Z,14.97
2023-04-08T17:59:14.605Z,15.70
2023-04-08T18:01:41.530Z,15.43
2023-04-08T18:04:08.743Z,23.37
2023-04-08T18:06:35.712Z,20.87
2023-04-08T18:09:03.890Z,17.40
2023-04-08T18:11:32.071Z,15.60
2023-04-08T18:13:58.693Z,15.43
2023-04-08T18:16:25.700Z,15.53
2023-04-08T18:18:52.386Z,16.27
2023-04-08T18:21:22.460Z,15.83
2023-04-08T18:23:49.377Z,16.50
2023-04-08T18:26:19.513Z,15.67
2023-04-08T18:28:46.585Z,16.33
2023-04-08T18:31:14.218Z,16.77
2023-04-08T18:33:42.312Z,17.23
2023-04-08T18:36:10.642Z,17.97
2023-04-08T18:38:40.045Z,16.63
2023-04-08T18:41:09.173Z,15.70
2023-04-08T18:43:35.889Z,16.10
2023-04-08T18:46:04.882Z,18.37
2023-04-08T18:48:31.716Z,18.53
2023-04-08T18:51:01.852Z,18.57
2023-04-08T18:53:29.352Z,19.03
2023-04-08T18:55:56.378Z,19.00
2023-04-08T18:58:22.987Z,18.20
2023-04-08T19:00:49.576Z,18.70
2023-04-08T19:03:19.621Z,19.93
2023-04-08T19:05:46.724Z,20.27
2023-04-08T19:08:13.555Z,23.10
2023-04-08T19:10:41.716Z,23.50
2023-04-08T19:13:12.065Z,23.37
2023-04-08T19:15:39.647Z,22.13
2023-04-08T19:18:12.361Z,24.13
2023-04-08T19:20:39.886Z,24.43
2023-04-08T19:23:07.125Z,23.43
2023-04-08T19:25:33.865Z,24.17
2023-04-08T19:28:00.661Z,25.37
2023-04-08T19:30:28.354Z,24.07
2023-04-08T19:32:57.407Z,25.13
2023-04-08T19:35:24.394Z,22.80
2023-04-08T19:37:51.170Z,23.10
2023-04-08T19:40:20.862Z,23.30
2023-04-08T19:42:47.581Z,21.03
2023-04-08T19:45:16.118Z,20.63
2023-04-08T19:47:47.232Z,21.67
2023-04-08T19:50:15.755Z,22.67
2023-04-08T19:52:42.571Z,22.37
2023-04-08T19:55:15.425Z,23.30
2023-04-08T19:57:42.094Z,23.10
2023-04-08T20:00:08.938Z,23.70
2023-04-08T20:02:37.722Z,24.50
2023-04-08T20:05:04.563Z,23.53
2023-04-08T20:07:31.159Z,22.53
2023-04-08T20:09:57.882Z,24.17
2023-04-08T20:12:24.527Z,21.20
2023-04-08T20:14:51.223Z,19.20
2023-04-08T20:17:20.942Z,20.70
2023-04-08T20:19:48.026Z,21.93
2023-04-08T20:22:15.989Z,21.67
2023-04-08T20:24:44.341Z,21.13
2023-04-08T20:27:11.469Z,22.27
2023-04-08T20:29:38.530Z,22.30
2023-04-08T20:32:06.126Z,22.73
2023-04-08T20:34:32.930Z,22.47
2023-04-08T20:36:59.662Z,21.40
2023-04-08T20:39:31.146Z,21.73
2023-04-08T20:42:00.901Z,19.70
2023-04-08T20:44:27.520Z,20.20
2023-04-08T20:46:56.241Z,20.67
2023-04-08T20:49:22.861Z,21.07
2023-04-08T20:51:49.789Z,20.43
2023-04-08T20:54:16.386Z,21.60
2023-04-08T20:56:43.784Z,21.60
2023-04-08T20:59:11.755Z,21.47
2023-04-08T21:01:39.882Z,22.43
2023-04-08T21:04:06.491Z,20.67
2023-04-08T21:06:33.420Z,21.20
2023-04-08T21:09:00.035Z,21.60
2023-04-08T21:11:28.507Z,21.57
2023-04-08T21:13:55.128Z,24.00
2023-04-08T21:16:21.903Z,23.97
2023-04-08T21:18:48.476Z,25.40
2023-04-08T21:21:15.062Z,27.57
2023-04-08T21:23:41.685Z,25.83
2023-04-08T21:26:12.041Z,23.83
2023-04-08T21:28:40.078Z,24.37
2023-04-08T21:31:10.181Z,24.23
2023-04-08T21:33:37.613Z,22.90
2023-04-08T21:36:04.576Z,23.67
2023-04-08T21:38:31.369Z,24.30
2023-04-08T21:40:58.206Z,24.60
2023-04-08T21:43:24.822Z,24.63
2023-04-08T21:45:53.499Z,26.53
2023-04-08T21:48:20.363Z,28.10
2023-04-08T21:50:47.102Z,26.73
2023-04-08T21:53:13.735Z,28.53
2023-04-08T21:55:40.300Z,28.53
2023-04-08T21:58:08.167Z,28.50
2023-04-08T22:00:35.013Z,26.80
2023-04-08T22:03:02.568Z,28.90
2023-04-08T22:05:29.265Z,30.33
2023-04-08T22:07:55.949Z,28.97
2023-04-08T22:10:22.543Z,28.10
2023-04-08T22:12:49.181Z,25.93
2023-04-08T22:15:16.782Z,26.10
2023-04-08T22:17:43.486Z,22.93
2023-04-08T22:20:10.448Z,25.33
2023-04-08T22:22:37.020Z,24.07
2023-04-08T22:25:03.789Z,23.70
2023-04-08T22:27:30.444Z,24.60
2023-04-08T22:29:57.001Z,25.07
2023-04-08T22:32:23.652Z,25.33
2023-04-08T22:34:50.770Z,24.17
2023-04-08T22:37:17.902Z,25.60
2023-04-08T22:39:44.510Z,24.93
2023-04-08T22:42:11.350Z,23.67
2023-04-08T22:44:38.756Z,24.97
2023-04-08T22:47:05.411Z,25.07
2023-04-08T22:49:31.923Z,23.47
2023-04-08T22:51:58.603Z,23.20
2023-04-08T22:54:25.721Z,24.60
2023-04-08T22:56:52.300Z,25.67
2023-04-08T22:59:18.976Z,26.67
2023-04-08T23:01:45.647Z,27.43
2023-04-08T23:04:12.423Z,26.73
2023-04-08T23:06:39.094Z,27.23
2023-04-08T23:09:05.835Z,26.17
2023-04-08T23:11:32.412Z,25.33
2023-04-08T23:13:59.009Z,26.37
2023-04-08T23:16:25.652Z,24.93
2023-04-08T23:18:52.454Z,24.93
2023-04-08T23:21:21.043Z,24.40
2023-04-08T23:23:47.617Z,24.67
2023-04-08T23:26:17.974Z,23.77
2023-04-08T23:28:44.767Z,24.53
2023-04-08T23:31:11.606Z,24.87
2023-04-08T23:33:38.183Z,24.20
2023-04-08T23:36:11.465Z,25.97
2023-04-08T23:38:39.385Z,27.93
2023-04-08T23:41:06.237Z,28.37
2023-04-08T23:43:32.976Z,26.27
2023-04-08T23:45:59.481Z,26.17
2023-04-08T23:48:26.062Z,24.50
2023-04-08T23:50:54.881Z,25.90
2023-04-08T23:53:21.745Z,25.03
2023-04-08T23:55:48.403Z,24.73
2023-04-08T23:58:16.030Z,24.63
